createdAt,value
2022-08-04T00:01:34.696Z,24.80
2022-08-04T00:04:50.300Z,24.80
2022-08-04T00:07:44.463Z,24.90
2022-08-04T00:10:18.938Z,24.90
2022-08-04T00:12:52.692Z,24.90
2022-08-04T00:15:22.863Z,25.00
2022-08-04T00:18:16.972Z,25.00
2022-08-04T00:20:47.445Z,25.10
2022-08-04T00:23:22.249Z,25.20
2022-08-04T00:25:52.037Z,25.20
2022-08-04T00:28:22.818Z,25.30
2022-08-04T00:30:52.744Z,25.30
2022-08-04T00:33:23.659Z,25.30
2022-08-04T00:35:53.335Z,25.40
2022-08-04T00:38:22.462Z,25.40
2022-08-04T00:41:01.887Z,25.50
2022-08-04T00:43:35.062Z,25.50
2022-08-04T00:46:24.543Z,25.60
2022-08-04T00:49:14.898Z,25.60
2022-08-04T00:52:31.392Z,25.60
2022-08-04T00:55:13.131Z,25.70
2022-08-04T00:58:12.436Z,25.80
2022-08-04T01:00:53.666Z,25.90
2022-08-04T01:03:44.356Z,26.00
2022-08-04T01:06:37.239Z,26.10
2022-08-04T01:09:21.880Z,26.20
2022-08-04T01:12:25.770Z,26.30
2022-08-04T01:15:17.326Z,26.30
2022-08-04T01:18:01.361Z,26.40
2022-08-04T01:20:36.622Z,26.50
2022-08-04T01:23:36.813Z,26.50
2022-08-04T01:26:41.931Z,26.60
2022-08-04T01:29:16.078Z,26.60
2022-08-04T01:31:54.402Z,26.60
2022-08-04T01:34:25.186Z,26.70
2022-08-04T01:37:34.472Z,26.70
2022-08-04T01:40:09.275Z,26.70
2022-08-04T01:42:40.768Z,26.70
2022-08-04T01:45:12.721Z,26.80
2022-08-04T01:47:52.233Z,26.80
2022-08-04T01:50:23.595Z,26.90
2022-08-04T01:52:59.297Z,26.90
2022-08-04T01:55:54.252Z,27.00
2022-08-04T01:58:22.462Z,27.10
2022-08-04T02:01:08.043Z,27.20
2022-08-04T02:04:18.089Z,27.20
2022-08-04T02:06:40.301Z,27.30
2022-08-04T02:09:27.170Z,27.40
2022-08-04T02:12:32.078Z,27.50
2022-08-04T02:15:29.558Z,27.60
2022-08-04T02:17:58.988Z,27.80
2022-08-04T02:20:45.131Z,27.80
2022-08-04T02:23:30.620Z,27.90
2022-08-04T02:26:08.817Z,28.00
2022-08-04T02:29:05.277Z,28.10
2022-08-04T02:31:45.739Z,28.20
2022-08-04T02:34:32.970Z,28.30
2022-08-04T02:37:05.470Z,28.40
2022-08-04T02:39:47.934Z,28.60
2022-08-04T02:42:20.370Z,28.70
2022-08-04T02:44:52.982Z,28.80
2022-08-04T02:48:28.920Z,28.80
2022-08-04T02:50:28.817Z,28.90
2022-08-04T02:53:00.108Z,29.00
2022-08-04T02:55:31.759Z,29.10
2022-08-04T02:58:03.686Z,29.20
2022-08-04T03:00:33.749Z,29.20
2022-08-04T03:03:27.453Z,29.30
2022-08-04T03:06:16.057Z,29.30
2022-08-04T03:09:35.263Z,29.40
2022-08-04T03:12:41.370Z,29.50
2022-08-04T03:15:55.723Z,29.70
2022-08-04T03:18:37.066Z,29.80
2022-08-04T03:21:24.926Z,29.90
2022-08-04T03:24:14.935Z,30.00
2022-08-04T03:27:18.958Z,30.10
2022-08-04T03:30:00.752Z,30.20
2022-08-04T03:32:51.333Z,30.30
2022-08-04T03:36:02.093Z,30.50
2022-08-04T03:39:01.736Z,30.60
2022-08-04T03:42:03.513Z,30.70
2022-08-04T03:45:01.479Z,30.80
2022-08-04T03:47:45.747Z,30.90
2022-08-04T03:50:48.351Z,31.10
2022-08-04T03:53:30.604Z,31.20
2022-08-04T03:56:05.689Z,31.20
2022-08-04T03:59:19.103Z,31.30
2022-08-04T04:02:02.556Z,31.50
2022-08-04T04:05:01.814Z,31.50
2022-08-04T04:08:18.644Z,31.60
2022-08-04T04:10:54.485Z,31.60
2022-08-04T04:13:52.347Z,31.60
2022-08-04T04:16:27.396Z,31.70
2022-08-04T04:19:08.716Z,31.80
2022-08-04T04:21:56.050Z,31.80
2022-08-04T04:24:43.235Z,31.90
2022-08-04T04:27:36.370Z,31.90
2022-08-04T04:30:10.324Z,31.90
2022-08-04T04:33:14.872Z,31.90
2022-08-04T04:35:59.640Z,32.00
2022-08-04T04:38:40.899Z,32.00
2022-08-04T04:41:23.610Z,32.10
2022-08-04T04:44:17.166Z,32.10
2022-08-04T04:47:43.049Z,32.20
2022-08-04T04:50:47.281Z,32.30
2022-08-04T04:53:43.376Z,32.40
2022-08-04T04:56:38.633Z,32.50
2022-08-04T04:59:12.523Z,32.50
2022-08-04T05:02:03.943Z,32.60
2022-08-04T05:05:05.090Z,32.60
2022-08-04T05:08:44.402Z,32.70
2022-08-04T05:11:01.700Z,32.80
2022-08-04T05:14:34.479Z,32.90
2022-08-04T05:16:52.795Z,32.90
2022-08-04T05:19:36.053Z,32.90
2022-08-04T05:22:29.961Z,32.90
2022-08-04T05:25:20.101Z,33.00
2022-08-04T05:28:13.905Z,33.00
2022-08-04T05:30:51.851Z,32.90
2022-08-04T05:33:38.482Z,32.90
2022-08-04T05:36:18.619Z,32.90
2022-08-04T05:38:55.433Z,32.90
2022-08-04T05:41:32.266Z,32.90
2022-08-04T05:44:15.321Z,32.90
2022-08-04T05:46:54.071Z,32.90
2022-08-04T05:49:31.116Z,32.90
2022-08-04T05:52:05.471Z,32.90
2022-08-04T05:54:37.035Z,32.90
2022-08-04T05:57:08.650Z,32.90
2022-08-04T05:59:43.451Z,32.80
2022-08-04T06:02:13.199Z,32.80
2022-08-04T06:04:45.088Z,32.70
2022-08-04T06:07:15.583Z,32.80
2022-08-04T06:09:45.135Z,32.70
2022-08-04T06:12:34.850Z,32.80
2022-08-04T06:15:05.942Z,32.80
2022-08-04T06:18:35.217Z,32.80
2022-08-04T06:20:35.276Z,32.80
2022-08-04T06:23:16.483Z,32.80
2022-08-04T06:25:52.090Z,32.90
2022-08-04T06:28:22.224Z,32.90
2022-08-04T06:30:52.743Z,33.00
2022-08-04T06:33:28.828Z,33.10
2022-08-04T06:35:59.861Z,33.10
2022-08-04T06:38:31.611Z,33.20
2022-08-04T06:41:04.941Z,33.20
2022-08-04T06:43:42.967Z,33.20
2022-08-04T06:46:14.185Z,33.20
2022-08-04T06:48:44.829Z,33.20
2022-08-04T06:51:25.591Z,33.30
2022-08-04T06:54:02.713Z,33.30
2022-08-04T06:56:35.362Z,33.50
2022-08-04T06:59:06.299Z,33.50
2022-08-04T07:01:39.211Z,33.50
2022-08-04T07:04:08.991Z,33.30
2022-08-04T07:06:39.049Z,33.20
2022-08-04T07:09:09.235Z,33.20
2022-08-04T07:11:44.369Z,33.20
2022-08-04T07:14:15.679Z,33.30
2022-08-04T07:16:45.861Z,33.30
2022-08-04T07:19:18.919Z,33.30
2022-08-04T07:22:24.513Z,33.50
2022-08-04T07:24:41.066Z,33.60
2022-08-04T07:27:11.674Z,33.60
2022-08-04T07:29:41.904Z,33.50
2022-08-04T07:32:12.988Z,33.60
2022-08-04T07:34:43.866Z,33.60
2022-08-04T07:37:19.760Z,33.50
2022-08-04T07:39:49.215Z,33.50
2022-08-04T07:42:21.679Z,33.50
2022-08-04T07:44:51.697Z,33.40
2022-08-04T07:47:25.263Z,33.30
2022-08-04T07:49:57.669Z,33.30
2022-08-04T07:52:29.439Z,33.30
2022-08-04T07:54:59.588Z,33.40
2022-08-04T07:57:41.084Z,33.40
2022-08-04T08:00:15.389Z,33.40
2022-08-04T08:02:44.590Z,33.50
2022-08-04T08:05:18.043Z,33.40
2022-08-04T08:07:50.846Z,33.40
2022-08-04T08:10:25.348Z,33.40
2022-08-04T08:12:55.550Z,33.50
2022-08-04T08:15:25.630Z,33.50
2022-08-04T08:17:58.586Z,33.50
2022-08-04T08:20:31.649Z,33.40
2022-08-04T08:23:03.166Z,33.40
2022-08-04T08:25:35.852Z,33.40
2022-08-04T08:28:06.647Z,33.30
2022-08-04T08:30:36.480Z,33.30
2022-08-04T08:33:11.131Z,33.30
2022-08-04T08:35:53.915Z,33.20
2022-08-04T08:39:02.306Z,33.20
2022-08-04T08:41:46.742Z,33.20
2022-08-04T08:44:39.348Z,33.20
2022-08-04T08:47:59.340Z,33.10
2022-08-04T08:51:04.881Z,33.10
2022-08-04T08:54:10.847Z,32.90
2022-08-04T08:57:04.307Z,32.90
2022-08-04T08:59:59.104Z,32.80
2022-08-04T09:02:42.570Z,32.70
2022-08-04T09:05:44.185Z,32.70
2022-08-04T09:08:36.682Z,32.70
2022-08-04T09:11:18.335Z,32.60
2022-08-04T09:14:07.304Z,32.70
2022-08-04T09:16:48.777Z,32.70
2022-08-04T09:19:38.183Z,32.70
2022-08-04T09:22:15.334Z,32.70
2022-08-04T09:25:03.939Z,32.70
2022-08-04T09:28:09.874Z,32.60
2022-08-04T09:30:54.129Z,32.50
2022-08-04T09:33:44.335Z,32.40
2022-08-04T09:36:37.446Z,32.30
2022-08-04T09:39:27.640Z,32.30
2022-08-04T09:42:00.698Z,32.20
2022-08-04T09:44:50.228Z,32.20
2022-08-04T09:47:51.946Z,32.10
2022-08-04T09:50:32.281Z,32.00
2022-08-04T09:53:29.685Z,32.00
2022-08-04T09:56:04.874Z,32.00
2022-08-04T09:58:46.498Z,32.00
2022-08-04T10:01:25.903Z,32.00
2022-08-04T10:04:02.692Z,32.00
2022-08-04T10:06:56.009Z,32.00
2022-08-04T10:09:44.523Z,32.00
2022-08-04T10:12:25.729Z,32.00
2022-08-04T10:15:22.135Z,31.90
2022-08-04T10:17:56.448Z,31.90
2022-08-04T10:20:46.033Z,31.90
2022-08-04T10:23:56.020Z,31.80
2022-08-04T10:26:47.013Z,31.80
2022-08-04T10:29:28.570Z,31.70
2022-08-04T10:32:42.756Z,31.60
2022-08-04T10:35:13.872Z,31.60
2022-08-04T10:37:59.207Z,31.50
2022-08-04T10:41:10.795Z,31.50
2022-08-04T10:44:12.445Z,31.50
2022-08-04T10:46:51.440Z,31.40
2022-08-04T10:49:57.893Z,31.40
2022-08-04T10:52:56.299Z,31.40
2022-08-04T10:56:06.136Z,31.30
2022-08-04T10:58:46.973Z,31.30
2022-08-04T11:02:01.624Z,31.20
2022-08-04T11:04:43.840Z,31.20
2022-08-04T11:07:14.434Z,31.10
2022-08-04T11:09:46.209Z,31.10
2022-08-04T11:12:28.577Z,31.00
2022-08-04T11:15:03.553Z,31.00
2022-08-04T11:17:39.992Z,31.00
2022-08-04T11:20:38.232Z,30.90
2022-08-04T11:23:17.389Z,30.90
2022-08-04T11:26:06.681Z,30.90
2022-08-04T11:29:00.758Z,30.80
2022-08-04T11:31:48.420Z,30.80
2022-08-04T11:34:28.733Z,30.70
2022-08-04T11:37:21.251Z,30.70
2022-08-04T11:40:19.769Z,30.60
2022-08-04T11:43:03.859Z,30.60
2022-08-04T11:45:56.228Z,30.50
2022-08-04T11:49:13.293Z,30.50
2022-08-04T11:51:44.831Z,30.40
2022-08-04T11:54:15.414Z,30.40
2022-08-04T11:56:44.925Z,30.30
2022-08-04T11:59:14.340Z,30.30
2022-08-04T12:02:23.158Z,30.20
2022-08-04T12:05:03.892Z,30.20
2022-08-04T12:08:01.972Z,30.10
2022-08-04T12:10:43.943Z,30.10
2022-08-04T12:13:45.886Z,30.00
2022-08-04T12:16:42.666Z,30.00
2022-08-04T12:19:40.032Z,30.00
2022-08-04T12:22:28.359Z,29.90
2022-08-04T12:25:15.533Z,29.90
2022-08-04T12:27:56.748Z,29.80
2022-08-04T12:31:02.606Z,29.70
2022-08-04T12:34:04.879Z,29.70
2022-08-04T12:36:44.397Z,29.70
2022-08-04T12:39:21.855Z,29.60
2022-08-04T12:41:57.230Z,29.60
2022-08-04T12:44:36.565Z,29.60
2022-08-04T12:47:28.167Z,29.50
2022-08-04T12:50:04.488Z,29.50
2022-08-04T12:53:00.928Z,29.50
2022-08-04T12:55:33.039Z,29.40
2022-08-04T12:58:05.586Z,29.40
2022-08-04T13:00:41.588Z,29.40
2022-08-04T13:03:19.100Z,29.30
2022-08-04T13:05:49.952Z,29.30
2022-08-04T13:08:22.934Z,29.30
2022-08-04T13:10:55.322Z,29.30
2022-08-04T13:13:28.977Z,29.20
2022-08-04T13:16:15.800Z,29.20
2022-08-04T13:18:50.578Z,29.20
2022-08-04T13:21:50.336Z,29.20
2022-08-04T13:24:21.057Z,29.20
2022-08-04T13:27:04.132Z,29.20
2022-08-04T13:29:58.120Z,29.10
2022-08-04T13:32:31.545Z,29.10
2022-08-04T13:35:05.752Z,29.10
2022-08-04T13:37:38.283Z,29.10
2022-08-04T13:40:10.910Z,29.10
2022-08-04T13:42:41.554Z,29.00
2022-08-04T13:45:11.447Z,29.00
2022-08-04T13:47:42.673Z,29.00
2022-08-04T13:50:14.831Z,29.00
2022-08-04T13:52:45.257Z,28.90
2022-08-04T13:55:26.440Z,28.90
2022-08-04T13:58:03.452Z,28.90
2022-08-04T14:00:53.363Z,28.90
2022-08-04T14:03:53.327Z,28.90
2022-08-04T14:06:45.070Z,28.90
2022-08-04T14:09:22.529Z,28.90
2022-08-04T14:12:38.723Z,28.90
2022-08-04T14:16:01.511Z,28.80
2022-08-04T14:18:24.770Z,28.80
2022-08-04T14:21:17.868Z,28.80
2022-08-04T14:23:56.198Z,28.80
2022-08-04T14:26:34.988Z,28.80
2022-08-04T14:29:28.643Z,28.80
2022-08-04T14:32:12.538Z,28.80
2022-08-04T14:34:46.373Z,28.80
2022-08-04T14:37:23.997Z,28.80
2022-08-04T14:40:08.783Z,28.70
2022-08-04T14:42:55.745Z,28.70
2022-08-04T14:45:55.615Z,28.70
2022-08-04T14:48:26.470Z,28.70
2022-08-04T14:50:56.017Z,28.70
2022-08-04T14:53:30.420Z,28.70
2022-08-04T14:56:02.210Z,28.70
2022-08-04T14:58:39.191Z,28.80
2022-08-04T15:01:12.734Z,28.80
2022-08-04T15:03:48.054Z,28.80
2022-08-04T15:06:26.706Z,28.80
2022-08-04T15:08:58.419Z,28.80
2022-08-04T15:11:28.842Z,28.80
2022-08-04T15:14:00.001Z,28.90
2022-08-04T15:16:32.002Z,28.90
2022-08-04T15:19:01.921Z,28.90
2022-08-04T15:21:32.319Z,28.90
2022-08-04T15:24:01.939Z,28.90
2022-08-04T15:26:36.866Z,28.90
2022-08-04T15:29:17.067Z,28.80
2022-08-04T15:32:06.999Z,28.80
2022-08-04T15:34:51.297Z,28.80
2022-08-04T15:37:28.404Z,28.80
2022-08-04T15:40:32.946Z,28.80
2022-08-04T15:43:43.415Z,28.80
2022-08-04T15:46:44.102Z,28.70
2022-08-04T15:49:20.808Z,28.70
2022-08-04T15:52:01.974Z,28.60
2022-08-04T15:54:33.137Z,28.60
2022-08-04T15:57:03.747Z,28.60
2022-08-04T16:00:02.431Z,28.50
2022-08-04T16:02:37.787Z,28.40
2022-08-04T16:05:19.015Z,28.40
2022-08-04T16:08:14.293Z,28.30
2022-08-04T16:10:46.873Z,28.30
2022-08-04T16:13:21.399Z,28.30
2022-08-04T16:15:53.033Z,28.30
2022-08-04T16:18:28.187Z,28.20
2022-08-04T16:20:59.060Z,28.20
2022-08-04T16:24:05.616Z,28.20
2022-08-04T16:26:54.640Z,28.20
2022-08-04T16:29:25.425Z,28.10
2022-08-04T16:32:12.938Z,28.10
2022-08-04T16:35:06.708Z,28.10
2022-08-04T16:37:39.288Z,28.10
2022-08-04T16:40:37.216Z,28.10
2022-08-04T16:43:23.736Z,28.10
2022-08-04T16:46:09.316Z,28.10
2022-08-04T16:49:07.804Z,28.10
2022-08-04T16:51:37.035Z,28.00
2022-08-04T16:54:07.660Z,28.00
2022-08-04T16:56:36.814Z,28.00
2022-08-04T16:59:13.501Z,28.00
2022-08-04T17:01:53.602Z,28.00
2022-08-04T17:04:33.990Z,27.90
2022-08-04T17:07:05.227Z,27.90
2022-08-04T17:09:34.925Z,27.90
2022-08-04T17:12:04.159Z,27.90
2022-08-04T17:14:33.960Z,27.80
2022-08-04T17:17:08.692Z,27.80
2022-08-04T17:19:38.887Z,27.80
2022-08-04T17:22:10.652Z,27.80
2022-08-04T17:24:41.778Z,27.70
2022-08-04T17:28:10.072Z,27.70
2022-08-04T17:30:02.866Z,27.70
2022-08-04T17:32:32.886Z,27.70
2022-08-04T17:35:04.562Z,27.70
2022-08-04T17:37:39.119Z,27.70
2022-08-04T17:40:18.329Z,27.70
2022-08-04T17:43:02.880Z,27.70
2022-08-04T17:46:30.203Z,27.60
2022-08-04T17:49:07.773Z,27.70
2022-08-04T17:52:04.270Z,27.60
2022-08-04T17:54:37.410Z,27.60
2022-08-04T17:57:24.047Z,27.60
2022-08-04T18:00:00.532Z,27.50
2022-08-04T18:02:35.298Z,27.50
2022-08-04T18:05:11.711Z,27.50
2022-08-04T18:08:46.042Z,27.50
2022-08-04T18:10:54.734Z,27.50
2022-08-04T18:13:29.677Z,27.40
2022-08-04T18:16:14.504Z,27.30
2022-08-04T18:19:31.502Z,27.40
2022-08-04T18:22:01.226Z,27.30
2022-08-04T18:24:56.161Z,27.30
2022-08-04T18:27:27.957Z,27.30
2022-08-04T18:30:33.827Z,27.30
2022-08-04T18:33:10.197Z,27.30
2022-08-04T18:36:32.521Z,27.20
2022-08-04T18:38:29.202Z,27.20
2022-08-04T18:40:59.138Z,27.20
2022-08-04T18:43:40.523Z,27.10
2022-08-04T18:46:14.609Z,27.10
2022-08-04T18:48:45.332Z,27.10
2022-08-04T18:51:24.358Z,27.10
2022-08-04T18:53:58.752Z,27.10
2022-08-04T18:56:32.834Z,27.10
2022-08-04T18:59:04.229Z,27.10
2022-08-04T19:04:34.020Z,27.00
2022-08-04T19:07:23.365Z,27.00
2022-08-04T19:09:57.692Z,27.00
2022-08-04T19:12:29.301Z,27.00
2022-08-04T19:15:08.954Z,26.90
2022-08-04T19:17:53.399Z,26.90
2022-08-04T19:20:27.766Z,26.90
2022-08-04T19:24:29.006Z,26.80
2022-08-04T19:26:03.950Z,26.80
2022-08-04T19:28:37.036Z,26.80
2022-08-04T19:31:08.722Z,26.80
2022-08-04T19:33:58.590Z,26.80
2022-08-04T19:36:31.471Z,26.80
2022-08-04T19:39:02.659Z,26.70
2022-08-04T19:42:05.946Z,26.70
2022-08-04T19:44:24.197Z,26.70
2022-08-04T19:46:53.432Z,26.70
2022-08-04T19:50:04.968Z,26.70
2022-08-04T19:52:11.610Z,26.60
2022-08-04T19:54:42.358Z,26.60
2022-08-04T19:57:15.474Z,26.60
2022-08-04T19:59:48.176Z,26.60
2022-08-04T20:02:17.799Z,26.60
2022-08-04T20:04:46.888Z,26.60
2022-08-04T20:07:16.917Z,26.60
2022-08-04T20:09:53.366Z,26.60
2022-08-04T20:12:22.995Z,26.50
2022-08-04T20:14:53.551Z,26.50
2022-08-04T20:17:55.670Z,26.50
2022-08-04T20:20:14.971Z,26.50
2022-08-04T20:22:52.245Z,26.50
2022-08-04T20:25:37.462Z,26.40
2022-08-04T20:28:08.204Z,26.40
2022-08-04T20:30:55.583Z,26.40
2022-08-04T20:33:24.997Z,26.40
2022-08-04T20:36:05.700Z,26.40
2022-08-04T20:38:36.255Z,26.30
2022-08-04T20:41:06.377Z,26.30
2022-08-04T20:43:35.832Z,26.30
2022-08-04T20:46:18.611Z,26.30
2022-08-04T20:48:57.048Z,26.30
2022-08-04T20:51:32.245Z,26.30
2022-08-04T20:54:04.549Z,26.20
2022-08-04T20:56:51.239Z,26.20
2022-08-04T20:59:21.394Z,26.20
2022-08-04T21:01:53.884Z,26.20
2022-08-04T21:04:32.722Z,26.10
2022-08-04T21:07:05.640Z,26.10
2022-08-04T21:09:38.363Z,26.10
2022-08-04T21:12:27.276Z,26.00
2022-08-04T21:15:13.988Z,26.10
2022-08-04T21:17:58.590Z,26.00
2022-08-04T21:20:34.541Z,26.00
2022-08-04T21:23:07.219Z,26.00
2022-08-04T21:25:42.980Z,26.00
2022-08-04T21:28:19.263Z,25.90
2022-08-04T21:30:54.182Z,26.00
2022-08-04T21:33:48.990Z,26.00
2022-08-04T21:36:19.743Z,25.90
2022-08-04T21:38:51.071Z,25.90
2022-08-04T21:41:24.869Z,25.90
2022-08-04T21:44:11.232Z,25.90
2022-08-04T21:46:44.649Z,25.90
2022-08-04T21:49:13.985Z,25.90
2022-08-04T21:51:57.725Z,25.90
2022-08-04T21:54:29.936Z,25.80
2022-08-04T21:56:59.108Z,25.90
2022-08-04T21:59:32.769Z,25.80
2022-08-04T22:02:03.256Z,25.80
2022-08-04T22:04:32.595Z,25.80
2022-08-04T22:07:03.133Z,25.90
2022-08-04T22:09:38.466Z,25.90
2022-08-04T22:12:12.318Z,25.80
2022-08-04T22:14:42.305Z,25.80
2022-08-04T22:17:19.309Z,25.80
2022-08-04T22:19:55.499Z,25.80
2022-08-04T22:22:29.611Z,25.80
2022-08-04T22:25:13.345Z,25.80
2022-08-04T22:28:02.913Z,25.80
2022-08-04T22:30:38.284Z,25.80
2022-08-04T22:33:18.012Z,25.80
2022-08-04T22:35:49.241Z,25.80
2022-08-04T22:38:26.793Z,25.80
2022-08-04T22:41:08.875Z,25.80
2022-08-04T22:43:39.532Z,25.80
2022-08-04T22:46:12.260Z,25.80
2022-08-04T22:51:18.391Z,25.70
2022-08-04T22:53:48.967Z,25.70
2022-08-04T22:56:37.414Z,25.80
2022-08-04T22:59:11.046Z,25.70
2022-08-04T23:01:59.619Z,25.70
2022-08-04T23:04:32.536Z,25.70
2022-08-04T23:07:09.069Z,25.70
2022-08-04T23:09:52.391Z,25.70
2022-08-04T23:12:25.469Z,25.70
2022-08-04T23:14:55.985Z,25.70
2022-08-04T23:17:27.767Z,25.70
2022-08-04T23:19:59.523Z,25.70
2022-08-04T23:22:41.835Z,25.70
2022-08-04T23:25:17.098Z,25.70
2022-08-04T23:27:51.273Z,25.70
2022-08-04T23:30:24.802Z,25.70
2022-08-04T23:33:00.074Z,25.80
2022-08-04T23:35:29.475Z,25.80
2022-08-04T23:38:00.053Z,25.80
2022-08-04T23:40:50.503Z,25.80
2022-08-04T23:43:20.630Z,25.80
2022-08-04T23:46:07.234Z,25.80
2022-08-04T23:48:39.359Z,25.80
2022-08-04T23:51:14.528Z,25.90
2022-08-04T23:54:03.185Z,25.90
2022-08-04T23:56:35.532Z,25.90
2022-08-04T23:59:17.910Z,25.90
